createdAt,value
2017-05-15T00:01:16.168Z,101598.83
2017-05-15T00:03:44.519Z,101594.89
2017-05-15T00:06:13.885Z,101596.80
2017-05-15T00:08:42.271Z,101599.89
2017-05-15T00:11:10.768Z,101595.73
2017-05-15T00:13:38.448Z,101599.00
2017-05-15T00:16:07.861Z,101599.00
2017-05-15T00:18:35.609Z,101605.77
2017-05-15T00:21:03.423Z,101607.13
2017-05-15T00:23:31.589Z,101602.34
2017-05-15T00:26:00.437Z,101602.64
2017-05-15T00:28:33.080Z,101603.72
2017-05-15T00:31:23.673Z,101600.94
2017-05-15T00:34:00.011Z,101599.53
2017-05-15T00:36:28.845Z,101596.86
2017-05-15T00:38:56.616Z,101602.66
2017-05-15T00:41:24.483Z,101596.60
2017-05-15T00:43:52.060Z,101593.39
2017-05-15T00:46:20.084Z,101610.13
2017-05-15T01:06:30.742Z,101639.81
2017-05-15T01:17:55.132Z,101635.61
2017-05-15T01:26:26.747Z,101642.00
2017-05-15T01:49:23.471Z,101660.47
2017-05-15T01:51:52.633Z,101657.19
2017-05-15T02:00:09.602Z,101671.48
2017-05-15T02:02:37.991Z,101670.44
2017-05-15T02:05:06.963Z,101664.93
2017-05-15T02:07:35.271Z,101666.30
2017-05-15T02:10:03.572Z,101666.64
2017-05-15T02:12:31.972Z,101671.48
2017-05-15T02:14:59.867Z,101670.44
2017-05-15T02:17:28.647Z,101668.11
2017-05-15T02:19:56.217Z,101664.93
2017-05-15T02:22:24.566Z,101664.83
2017-05-15T02:24:53.886Z,101673.95
2017-05-15T02:27:23.115Z,101674.70
2017-05-15T02:29:51.292Z,101681.82
2017-05-15T02:32:19.089Z,101683.86
2017-05-15T02:34:46.780Z,101685.27
2017-05-15T02:37:14.491Z,101681.42
2017-05-15T02:39:42.269Z,101685.59
2017-05-15T02:42:10.012Z,101695.27
2017-05-15T02:44:37.616Z,101694.45
2017-05-15T02:47:05.416Z,101693.72
2017-05-15T02:49:33.178Z,101692.16
2017-05-15T02:52:00.943Z,101701.17
2017-05-15T02:54:29.362Z,101699.27
2017-05-15T02:56:56.940Z,101697.56
2017-05-15T02:59:24.925Z,101696.38
2017-05-15T03:01:52.587Z,101689.46
2017-05-15T03:04:20.439Z,101694.31
2017-05-15T03:06:51.332Z,101695.47
2017-05-15T03:09:21.374Z,101701.37
2017-05-15T03:11:50.104Z,101698.38
2017-05-15T03:14:18.300Z,101708.42
2017-05-15T03:16:46.249Z,101707.63
2017-05-15T03:19:14.531Z,101706.77
2017-05-15T03:21:53.742Z,101709.16
2017-05-15T03:24:22.783Z,101712.83
2017-05-15T03:27:21.096Z,101714.20
2017-05-15T03:29:56.108Z,101720.72
2017-05-15T03:32:26.918Z,101727.66
2017-05-15T03:34:57.631Z,101730.41
2017-05-15T03:37:25.594Z,101732.17
2017-05-15T03:39:57.847Z,101725.14
2017-05-15T03:42:33.607Z,101721.92
2017-05-15T03:48:34.164Z,101729.34
2017-05-15T03:59:45.839Z,101738.15
2017-05-15T04:02:18.224Z,101727.51
2017-05-15T04:04:50.098Z,101733.44
2017-05-15T05:42:21.089Z,101846.48
2017-05-15T05:47:23.496Z,101851.57
2017-05-15T05:49:54.814Z,101856.28
2017-05-15T05:52:22.927Z,101850.72
2017-05-15T05:54:53.042Z,101860.31
2017-05-15T05:57:37.561Z,101855.14
2017-05-15T06:03:21.248Z,101863.83
2017-05-15T06:09:09.415Z,101867.65
2017-05-15T06:17:54.131Z,101877.73
2017-05-15T06:20:23.104Z,101876.06
2017-05-15T06:23:22.576Z,101879.09
2017-05-15T06:26:07.942Z,101880.27
2017-05-15T06:28:39.733Z,101886.05
2017-05-15T06:31:09.434Z,101886.81
2017-05-15T06:33:37.935Z,101893.55
2017-05-15T06:36:05.756Z,101899.00
2017-05-15T06:38:51.217Z,101904.84
2017-05-15T06:41:32.904Z,101907.02
2017-05-15T06:44:00.954Z,101915.09
2017-05-15T06:46:28.919Z,101915.45
2017-05-15T06:48:56.818Z,101909.02
2017-05-15T06:51:24.726Z,101908.81
2017-05-15T06:53:54.314Z,101908.31
2017-05-15T06:56:22.790Z,101909.00
2017-05-15T06:58:50.682Z,101916.66
2017-05-15T07:01:18.483Z,101907.15
2017-05-15T07:03:46.316Z,101918.41
2017-05-15T07:06:14.555Z,101923.33
2017-05-15T07:08:42.825Z,101922.11
2017-05-15T07:11:10.610Z,101921.83
2017-05-15T07:13:38.384Z,101926.20
2017-05-15T07:16:06.026Z,101927.73
2017-05-15T07:18:33.979Z,101927.41
2017-05-15T07:21:01.619Z,101933.52
2017-05-15T07:23:30.015Z,101933.95
2017-05-15T07:25:57.494Z,101930.91
2017-05-15T07:28:25.023Z,101927.09
2017-05-15T07:30:52.494Z,101935.86
2017-05-15T07:33:19.939Z,101939.48
2017-05-15T07:35:47.467Z,101940.02
2017-05-15T07:38:15.303Z,101938.66
2017-05-15T07:40:42.814Z,101935.37
2017-05-15T07:43:10.399Z,101943.17
2017-05-15T07:45:37.842Z,101942.11
2017-05-15T07:48:11.503Z,101944.77
2017-05-15T07:50:39.163Z,101944.52
2017-05-15T07:53:06.823Z,101936.52
2017-05-15T07:55:34.403Z,101932.90
2017-05-15T07:58:02.171Z,101937.07
2017-05-15T08:00:30.350Z,101934.18
2017-05-15T08:02:57.796Z,101929.58
2017-05-15T08:05:25.386Z,101931.63
2017-05-15T08:07:52.866Z,101947.58
2017-05-15T08:10:20.350Z,101947.02
2017-05-15T08:12:47.914Z,101934.85
2017-05-15T08:15:15.471Z,101930.34
2017-05-15T08:17:42.929Z,101931.52
2017-05-15T08:20:10.423Z,101927.00
2017-05-15T08:22:41.041Z,101933.07
2017-05-15T08:25:08.545Z,101941.66
2017-05-15T08:27:36.045Z,101939.09
2017-05-15T08:30:03.507Z,101948.22
2017-05-15T08:32:30.983Z,101951.91
2017-05-15T08:34:58.443Z,101945.17
2017-05-15T08:37:25.947Z,101941.23
2017-05-15T08:39:53.395Z,101941.39
2017-05-15T08:42:20.846Z,101942.23
2017-05-15T08:44:48.298Z,101944.62
2017-05-15T08:47:15.765Z,101946.56
2017-05-15T08:49:43.197Z,101946.80
2017-05-15T08:52:10.654Z,101954.48
2017-05-15T08:54:38.109Z,101957.06
2017-05-15T08:57:05.575Z,101944.98
2017-05-15T08:59:33.034Z,101949.73
2017-05-15T09:02:00.471Z,101946.55
2017-05-15T09:04:27.901Z,101956.07
2017-05-15T09:06:55.366Z,101961.00
2017-05-15T09:09:22.807Z,101957.65
2017-05-15T09:11:50.262Z,101960.33
2017-05-15T09:14:17.693Z,101961.09
2017-05-15T09:16:45.131Z,101961.61
2017-05-15T09:19:12.574Z,101955.95
2017-05-15T09:21:40.035Z,101958.09
2017-05-15T09:24:07.465Z,101958.05
2017-05-15T09:26:34.901Z,101959.36
2017-05-15T09:29:02.341Z,101960.70
2017-05-15T09:31:29.779Z,101966.37
2017-05-15T09:33:57.209Z,101960.55
2017-05-15T09:36:24.642Z,101969.69
2017-05-15T09:38:52.099Z,101959.67
2017-05-15T09:41:19.527Z,101963.12
2017-05-15T09:43:46.957Z,101957.91
2017-05-15T09:46:14.379Z,101966.34
2017-05-15T09:48:41.818Z,101972.41
2017-05-15T09:51:09.241Z,101972.73
2017-05-15T09:53:36.666Z,101971.94
2017-05-15T09:56:04.102Z,101967.33
2017-05-15T09:58:44.230Z,101960.26
2017-05-15T10:01:11.654Z,101961.86
2017-05-15T10:03:39.091Z,101965.47
2017-05-15T10:06:06.518Z,101959.36
2017-05-15T10:08:33.943Z,101964.17
2017-05-15T10:11:01.374Z,101964.09
2017-05-15T10:13:28.803Z,101965.28
2017-05-15T10:15:56.241Z,101968.17
2017-05-15T10:18:23.661Z,101968.63
2017-05-15T10:20:51.121Z,101974.67
2017-05-15T10:23:18.550Z,101967.32
2017-05-15T10:25:45.979Z,101970.77
2017-05-15T10:28:13.403Z,101971.03
2017-05-15T10:30:40.843Z,101973.54
2017-05-15T10:33:08.286Z,101976.23
2017-05-15T10:35:35.723Z,101978.28
2017-05-15T10:38:03.149Z,101982.66
2017-05-15T10:40:30.581Z,101984.08
2017-05-15T10:42:58.007Z,101981.08
2017-05-15T10:45:25.455Z,101980.95
2017-05-15T10:47:52.882Z,101973.50
2017-05-15T10:50:20.311Z,101973.03
2017-05-15T10:52:47.741Z,101972.08
2017-05-15T10:55:15.178Z,101967.44
2017-05-15T10:57:42.630Z,101974.05
2017-05-15T11:00:10.058Z,101971.80
2017-05-15T11:02:37.503Z,101974.69
2017-05-15T11:05:04.946Z,101965.70
2017-05-15T11:07:32.378Z,101968.48
2017-05-15T11:10:07.370Z,101964.19
2017-05-15T11:12:34.794Z,101962.91
2017-05-15T11:15:02.225Z,101964.44
2017-05-15T11:17:29.853Z,101951.87
2017-05-15T11:19:57.509Z,101946.25
2017-05-15T11:22:24.949Z,101947.59
2017-05-15T11:24:52.392Z,101956.31
2017-05-15T11:27:19.839Z,101954.09
2017-05-15T11:29:47.270Z,101955.34
2017-05-15T11:32:33.755Z,101954.95
2017-05-15T11:35:01.287Z,101956.03
2017-05-15T11:37:28.754Z,101962.91
2017-05-15T11:39:56.245Z,101957.11
2017-05-15T11:42:23.733Z,101956.40
2017-05-15T11:50:10.775Z,101947.52
2017-05-15T11:52:38.223Z,101942.89
2017-05-15T11:55:05.809Z,101948.72
2017-05-15T11:57:33.512Z,101935.34
2017-05-15T12:00:01.074Z,101930.12
2017-05-15T12:02:28.550Z,101933.09
2017-05-15T12:04:56.147Z,101926.48
2017-05-15T12:07:23.674Z,101934.04
2017-05-15T12:09:51.142Z,101923.80
2017-05-15T12:12:18.728Z,101928.37
2017-05-15T12:14:46.488Z,101914.18
2017-05-15T12:17:14.812Z,101921.55
2017-05-15T12:19:42.274Z,101919.84
2017-05-15T12:22:23.138Z,101916.61
2017-05-15T12:24:50.566Z,101922.66
2017-05-15T12:27:18.099Z,101923.03
2017-05-15T12:29:45.679Z,101917.89
2017-05-15T12:32:13.322Z,101911.91
2017-05-15T12:34:40.887Z,101911.97
2017-05-15T12:37:08.310Z,101909.86
2017-05-15T12:39:35.880Z,101916.22
2017-05-15T12:42:03.606Z,101913.01
2017-05-15T12:44:31.062Z,101911.64
2017-05-15T12:46:58.551Z,101915.31
2017-05-15T12:49:26.003Z,101914.63
2017-05-15T12:51:53.558Z,101912.04
2017-05-15T12:54:21.026Z,101906.33
2017-05-15T12:56:48.473Z,101911.22
2017-05-15T12:59:15.897Z,101917.33
2017-05-15T13:01:43.363Z,101905.88
2017-05-15T13:04:10.785Z,101907.20
2017-05-15T13:06:38.220Z,101903.64
2017-05-15T13:09:05.649Z,101894.58
2017-05-15T13:11:33.122Z,101897.22
2017-05-15T13:14:00.552Z,101898.37
2017-05-15T13:16:44.698Z,101896.50
2017-05-15T13:19:12.119Z,101891.79
2017-05-15T13:21:39.552Z,101888.45
2017-05-15T13:27:28.033Z,101878.12
2017-05-15T13:30:10.631Z,101891.25
2017-05-15T13:32:38.520Z,101880.13
2017-05-15T13:37:48.553Z,101878.12
2017-05-15T13:40:32.546Z,101871.73
2017-05-15T13:43:00.563Z,101872.91
2017-05-15T13:45:28.410Z,101871.05
2017-05-15T13:47:56.187Z,101871.83
2017-05-15T13:53:00.189Z,101860.50
2017-05-15T13:55:27.835Z,101863.94
2017-05-15T13:57:55.850Z,101857.86
2017-05-15T14:00:23.321Z,101864.70
2017-05-15T14:03:03.472Z,101861.22
2017-05-15T14:05:31.277Z,101859.06
2017-05-15T14:07:58.874Z,101863.03
2017-05-15T14:10:26.748Z,101863.87
2017-05-15T14:12:54.629Z,101860.22
2017-05-15T14:15:22.228Z,101856.99
2017-05-15T14:17:49.970Z,101859.72
2017-05-15T14:20:33.563Z,101853.05
2017-05-15T14:23:14.415Z,101852.97
2017-05-15T14:25:54.482Z,101849.27
2017-05-15T14:28:21.925Z,101841.58
2017-05-15T14:30:49.377Z,101837.88
2017-05-15T14:33:16.832Z,101839.42
2017-05-15T14:35:44.266Z,101844.94
2017-05-15T14:38:11.686Z,101841.55
2017-05-15T14:40:39.124Z,101837.08
2017-05-15T14:43:06.562Z,101838.66
2017-05-15T14:45:33.994Z,101834.48
2017-05-15T14:48:01.427Z,101827.88
2017-05-15T14:50:28.858Z,101833.75
2017-05-15T14:52:56.298Z,101832.19
2017-05-15T14:55:23.771Z,101824.59
2017-05-15T14:57:51.209Z,101819.22
2017-05-15T15:00:18.663Z,101823.23
2017-05-15T15:02:46.102Z,101826.42
2017-05-15T15:05:13.578Z,101822.97
2017-05-15T15:07:41.012Z,101826.70
2017-05-15T15:10:31.416Z,101824.95
2017-05-15T15:12:58.886Z,101816.95
2017-05-15T15:15:38.919Z,101817.27
2017-05-15T15:18:06.377Z,101814.09
2017-05-15T15:20:33.970Z,101808.48
2017-05-15T15:23:01.424Z,101808.66
2017-05-15T15:25:28.878Z,101808.13
2017-05-15T15:27:56.396Z,101800.52
2017-05-15T15:30:23.877Z,101807.53
2017-05-15T15:32:51.444Z,101808.13
2017-05-15T15:35:18.910Z,101807.45
2017-05-15T15:37:46.459Z,101801.12
2017-05-15T15:40:13.970Z,101797.07
2017-05-15T15:42:41.496Z,101805.77
2017-05-15T15:45:08.958Z,101799.36
2017-05-15T15:47:36.458Z,101799.92
2017-05-15T15:50:03.973Z,101791.17
2017-05-15T15:52:50.734Z,101797.25
2017-05-15T15:55:18.203Z,101791.22
2017-05-15T15:57:45.653Z,101789.95
2017-05-15T16:00:33.840Z,101795.45
2017-05-15T16:03:01.274Z,101796.45
2017-05-15T16:05:41.427Z,101801.34
2017-05-15T16:08:08.865Z,101796.67
2017-05-15T16:10:36.291Z,101801.75
2017-05-15T16:15:56.840Z,101792.94
2017-05-15T16:18:24.346Z,101794.89
2017-05-15T16:20:51.747Z,101796.30
2017-05-15T16:23:19.286Z,101796.27
2017-05-15T16:25:46.762Z,101795.14
2017-05-15T16:28:14.186Z,101792.32
2017-05-15T16:30:41.630Z,101797.59
2017-05-15T16:33:09.215Z,101802.16
2017-05-15T16:35:36.670Z,101796.56
2017-05-15T16:38:04.190Z,101804.95
2017-05-15T16:40:31.702Z,101796.49
2017-05-15T16:43:00.695Z,101801.17
2017-05-15T16:45:28.198Z,101799.95
2017-05-15T16:47:55.701Z,101792.74
2017-05-15T16:50:23.498Z,101798.81
2017-05-15T16:53:03.418Z,101794.52
2017-05-15T16:55:30.857Z,101802.95
2017-05-15T16:57:58.292Z,101797.00
2017-05-15T17:00:25.734Z,101800.02
2017-05-15T17:02:53.168Z,101796.08
2017-05-15T17:05:20.607Z,101795.95
2017-05-15T17:07:48.042Z,101793.53
2017-05-15T17:10:15.486Z,101794.47
2017-05-15T17:12:42.911Z,101796.52
2017-05-15T17:15:10.546Z,101799.86
2017-05-15T17:17:37.998Z,101801.61
2017-05-15T17:20:05.437Z,101802.68
2017-05-15T17:22:32.863Z,101801.92
2017-05-15T17:25:00.310Z,101805.19
2017-05-15T17:27:27.746Z,101798.41
2017-05-15T17:29:55.188Z,101799.89
2017-05-15T17:32:22.614Z,101798.63
2017-05-15T17:34:50.046Z,101798.23
2017-05-15T17:37:17.488Z,101800.77
2017-05-15T17:39:44.921Z,101797.42
2017-05-15T17:42:12.363Z,101798.64
2017-05-15T17:44:39.797Z,101813.61
2017-05-15T17:47:07.260Z,101811.93
2017-05-15T17:49:34.714Z,101810.63
2017-05-15T17:52:27.744Z,101811.81
2017-05-15T17:54:58.390Z,101818.70
2017-05-15T17:57:25.826Z,101822.12
2017-05-15T17:59:53.261Z,101823.89
2017-05-15T18:02:20.695Z,101819.82
2017-05-15T18:04:48.126Z,101819.09
2017-05-15T18:07:17.501Z,101820.73
2017-05-15T18:09:44.931Z,101825.88
2017-05-15T18:12:12.350Z,101820.41
2017-05-15T18:14:39.784Z,101828.56
2017-05-15T18:17:07.217Z,101827.84
2017-05-15T18:19:35.586Z,101829.02
2017-05-15T18:22:03.014Z,101830.81
2017-05-15T18:24:30.850Z,101833.75
2017-05-15T18:26:58.273Z,101833.02
2017-05-15T18:29:27.683Z,101834.67
2017-05-15T18:32:00.865Z,101834.42
2017-05-15T18:34:28.290Z,101833.72
2017-05-15T18:36:55.877Z,101829.69
2017-05-15T18:39:23.341Z,101830.45
2017-05-15T18:41:51.230Z,101832.65
2017-05-15T18:47:17.514Z,101843.95
2017-05-15T18:49:44.984Z,101837.78
2017-05-15T18:52:12.410Z,101844.53
2017-05-15T18:54:39.866Z,101844.32
2017-05-15T18:57:07.326Z,101844.06
2017-05-15T18:59:34.756Z,101846.89
2017-05-15T19:02:02.274Z,101847.90
2017-05-15T19:04:29.722Z,101844.62
2017-05-15T19:07:03.334Z,101857.25
2017-05-15T19:09:30.794Z,101851.95
2017-05-15T19:11:58.229Z,101854.03
2017-05-15T19:14:25.734Z,101858.22
2017-05-15T19:16:53.177Z,101858.86
2017-05-15T19:19:20.631Z,101868.60
2017-05-15T19:21:48.060Z,101870.34
2017-05-15T19:24:15.509Z,101864.48
2017-05-15T19:26:42.960Z,101865.95
2017-05-15T19:29:10.454Z,101869.16
2017-05-15T19:31:37.909Z,101873.97
2017-05-15T19:34:05.358Z,101872.45
2017-05-15T19:36:32.807Z,101879.70
2017-05-15T19:39:00.323Z,101881.46
2017-05-15T19:41:27.821Z,101887.07
2017-05-15T19:43:55.268Z,101881.92
2017-05-15T19:46:23.287Z,101884.98
2017-05-15T19:48:51.058Z,101886.02
2017-05-15T19:51:18.566Z,101891.28
2017-05-15T19:53:46.117Z,101893.38
2017-05-15T19:56:13.573Z,101894.08
2017-05-15T19:58:41.046Z,101897.41
2017-05-15T20:01:09.571Z,101900.34
2017-05-15T20:03:37.620Z,101904.52
2017-05-15T20:06:05.455Z,101907.33
2017-05-15T20:08:33.156Z,101917.61
2017-05-15T20:11:00.791Z,101916.66
2017-05-15T20:13:28.683Z,101913.36
2017-05-15T20:15:56.759Z,101921.57
2017-05-15T20:18:24.475Z,101917.03
2017-05-15T20:20:51.916Z,101918.95
2017-05-15T20:23:20.360Z,101921.00
2017-05-15T20:25:48.179Z,101921.14
2017-05-15T20:28:16.264Z,101920.61
2017-05-15T20:30:44.279Z,101919.67
2017-05-15T20:33:13.063Z,101921.91
2017-05-15T20:35:41.081Z,101913.94
2017-05-15T20:38:10.042Z,101917.98
2017-05-15T20:40:39.959Z,101919.81
2017-05-15T20:43:10.818Z,101912.45
2017-05-15T20:45:39.615Z,101925.34
2017-05-15T20:48:07.186Z,101918.55
2017-05-15T20:50:35.751Z,101921.62
2017-05-15T20:53:03.422Z,101917.38
2017-05-15T20:55:30.895Z,101925.41
2017-05-15T20:57:58.419Z,101921.03
2017-05-15T21:00:26.228Z,101920.30
2017-05-15T21:02:53.839Z,101921.98
2017-05-15T21:05:21.458Z,101923.48
2017-05-15T21:07:48.980Z,101930.27
2017-05-15T21:10:16.742Z,101938.25
2017-05-15T21:12:44.322Z,101939.83
2017-05-15T21:15:13.030Z,101940.44
2017-05-15T21:17:40.604Z,101941.28
2017-05-15T21:20:08.106Z,101938.81
2017-05-15T21:22:35.618Z,101935.73
2017-05-15T21:25:03.157Z,101931.24
2017-05-15T21:27:30.661Z,101944.52
2017-05-15T21:29:58.175Z,101939.08
2017-05-15T21:32:25.903Z,101946.91
2017-05-15T21:34:53.923Z,101948.41
2017-05-15T21:37:21.548Z,101945.39
2017-05-15T21:39:49.102Z,101946.56
2017-05-15T21:42:16.634Z,101938.87
2017-05-15T21:44:44.152Z,101935.34
2017-05-15T21:47:12.407Z,101943.83
2017-05-15T21:49:40.468Z,101943.57
2017-05-15T21:52:09.451Z,101936.55
2017-05-15T21:54:38.128Z,101939.45
2017-05-15T21:57:05.863Z,101943.66
2017-05-15T21:59:34.334Z,101945.56
2017-05-15T22:02:03.047Z,101952.21
2017-05-15T22:04:31.837Z,101945.84
2017-05-15T22:06:59.626Z,101949.29
2017-05-15T22:09:41.166Z,101950.54
2017-05-15T22:12:09.801Z,101952.64
2017-05-15T22:14:38.278Z,101955.04
2017-05-15T22:17:06.963Z,101958.29
2017-05-15T22:19:36.875Z,101954.02
2017-05-15T22:22:05.003Z,101960.13
2017-05-15T22:24:34.159Z,101963.93
2017-05-15T22:27:02.948Z,101961.92
2017-05-15T22:29:30.635Z,101961.50
2017-05-15T22:31:59.492Z,101967.16
2017-05-15T22:34:27.160Z,101968.44
2017-05-15T22:36:55.788Z,101971.00
2017-05-15T22:39:23.379Z,101970.47
2017-05-15T22:41:51.154Z,101971.52
2017-05-15T22:44:18.964Z,101971.72
2017-05-15T22:46:46.665Z,101964.49
2017-05-15T22:49:17.225Z,101964.78
2017-05-15T22:51:48.021Z,101964.88
2017-05-15T22:54:16.760Z,101966.69
2017-05-15T22:56:47.793Z,101962.84
2017-05-15T22:59:15.563Z,101968.55
2017-05-15T23:01:43.102Z,101973.41
2017-05-15T23:04:11.961Z,101976.98
2017-05-15T23:06:41.176Z,101975.07
2017-05-15T23:09:09.101Z,101975.46
2017-05-15T23:11:36.611Z,101967.05
2017-05-15T23:14:04.092Z,101968.19
2017-05-15T23:16:31.785Z,101967.62
2017-05-15T23:18:59.359Z,101963.58
2017-05-15T23:21:27.287Z,101959.93
2017-05-15T23:26:46.972Z,101962.54
2017-05-15T23:29:14.766Z,101966.64
2017-05-15T23:31:51.159Z,101955.99
2017-05-15T23:34:19.657Z,101953.00
2017-05-15T23:36:49.887Z,101950.23
2017-05-15T23:39:17.544Z,101948.72
2017-05-15T23:41:45.289Z,101941.36
2017-05-15T23:44:12.977Z,101945.34
2017-05-15T23:46:40.680Z,101944.48
2017-05-15T23:51:43.951Z,101957.41
2017-05-15T23:54:20.373Z,101949.95
2017-05-15T23:56:47.993Z,101943.35
